createdAt,value
2018-06-15T00:00:45.497Z,996.83
2018-06-15T00:01:55.589Z,996.81
2018-06-15T00:03:05.739Z,996.85
2018-06-15T00:04:15.557Z,996.81
2018-06-15T00:05:25.384Z,996.85
2018-06-15T00:06:35.471Z,996.86
2018-06-15T00:07:45.550Z,996.91
2018-06-15T00:08:56.734Z,996.92
2018-06-15T00:10:06.801Z,996.97
2018-06-15T00:11:16.602Z,996.96
2018-06-15T00:12:26.661Z,996.99
2018-06-15T00:13:36.737Z,997
2018-06-15T00:14:46.798Z,996.97
2018-06-15T00:15:56.892Z,997.05
2018-06-15T00:17:06.977Z,997
2018-06-15T00:18:16.778Z,997.04
2018-06-15T00:19:26.623Z,996.94
2018-06-15T00:20:36.692Z,996.99
2018-06-15T00:21:46.767Z,997.01
2018-06-15T00:22:56.822Z,997.02
2018-06-15T00:24:06.948Z,996.98
2018-06-15T00:25:16.749Z,996.99
2018-06-15T00:26:26.831Z,997.01
2018-06-15T00:27:36.929Z,996.98
2018-06-15T00:28:47.004Z,996.99
2018-06-15T00:29:57.090Z,996.99
2018-06-15T00:31:07.182Z,996.96
2018-06-15T00:32:17.049Z,996.94
2018-06-15T00:33:27.117Z,996.93
2018-06-15T00:34:36.919Z,996.91
2018-06-15T00:35:46.993Z,996.91
2018-06-15T00:36:57.068Z,996.9
2018-06-15T00:38:07.179Z,996.9
2018-06-15T00:39:17.253Z,996.92
2018-06-15T00:40:27.340Z,996.85
2018-06-15T00:41:37.409Z,996.9
2018-06-15T00:42:47.494Z,996.91
2018-06-15T00:43:57.363Z,996.86
2018-06-15T00:45:07.420Z,996.86
2018-06-15T00:46:17.482Z,996.82
2018-06-15T00:47:27.290Z,996.85
2018-06-15T00:48:36.322Z,996.87
2018-06-15T00:49:46.389Z,996.88
2018-06-15T00:50:56.191Z,996.87
2018-06-15T00:52:05.989Z,996.84
2018-06-15T00:53:16.078Z,996.84
2018-06-15T00:54:26.146Z,996.88
2018-06-15T00:55:36.219Z,996.86
2018-06-15T00:56:46.015Z,996.87
2018-06-15T00:57:56.092Z,996.91
2018-06-15T00:59:06.158Z,996.93
2018-06-15T01:00:16.224Z,996.87
2018-06-15T01:01:26.310Z,996.84
2018-06-15T01:02:36.375Z,996.87
2018-06-15T01:03:46.454Z,996.84
2018-06-15T01:04:56.520Z,996.86
2018-06-15T01:06:06.597Z,996.84
2018-06-15T01:07:16.727Z,996.87
2018-06-15T01:08:26.815Z,996.85
2018-06-15T01:09:36.906Z,996.85
2018-06-15T01:10:47.000Z,996.75
2018-06-15T01:11:57.096Z,996.84
2018-06-15T01:13:07.169Z,996.84
2018-06-15T01:14:17.231Z,996.87
2018-06-15T01:15:27.052Z,996.85
2018-06-15T01:16:36.844Z,996.84
2018-06-15T01:17:46.915Z,996.86
2018-06-15T01:18:56.991Z,996.91
2018-06-15T01:20:06.804Z,997.03
2018-06-15T01:21:16.633Z,996.9
2018-06-15T01:22:26.463Z,996.89
2018-06-15T01:23:36.538Z,996.84
2018-06-15T01:24:46.405Z,996.84
2018-06-15T01:25:56.491Z,996.9
2018-06-15T01:27:06.303Z,996.87
2018-06-15T01:28:16.125Z,996.87
2018-06-15T01:29:25.934Z,996.9
2018-06-15T01:30:35.990Z,996.91
2018-06-15T01:31:46.045Z,996.85
2018-06-15T01:32:55.860Z,996.92
2018-06-15T01:34:05.942Z,996.86
2018-06-15T01:35:16.004Z,996.89
2018-06-15T01:36:26.069Z,996.91
2018-06-15T01:37:36.140Z,996.88
2018-06-15T01:38:45.955Z,996.83
2018-06-15T01:39:56.033Z,996.82
2018-06-15T01:41:05.581Z,996.81
2018-06-15T01:42:15.659Z,996.8
2018-06-15T01:43:25.732Z,996.8
2018-06-15T01:44:35.798Z,996.75
2018-06-15T01:45:45.865Z,996.77
2018-06-15T01:46:55.941Z,996.74
2018-06-15T01:48:06.017Z,996.76
2018-06-15T01:49:15.826Z,996.75
2018-06-15T01:50:25.906Z,996.78
2018-06-15T01:51:35.719Z,996.76
2018-06-15T01:52:45.522Z,996.76
2018-06-15T01:53:55.335Z,996.84
2018-06-15T01:55:05.397Z,996.78
2018-06-15T01:56:15.207Z,996.76
2018-06-15T01:57:25.025Z,996.78
2018-06-15T01:58:35.112Z,996.78
2018-06-15T01:59:45.177Z,996.8
2018-06-15T02:00:55.252Z,996.77
2018-06-15T02:02:04.917Z,996.74
2018-06-15T02:03:14.982Z,996.76
2018-06-15T02:04:24.785Z,996.79
2018-06-15T02:05:34.841Z,996.81
2018-06-15T02:06:44.929Z,996.84
2018-06-15T02:07:55.002Z,996.83
2018-06-15T02:09:05.063Z,996.81
2018-06-15T02:10:15.128Z,996.82
2018-06-15T02:11:25.288Z,996.81
2018-06-15T02:12:35.351Z,996.8
2018-06-15T02:13:45.163Z,996.76
2018-06-15T02:14:55.261Z,996.77
2018-06-15T02:16:05.351Z,996.81
2018-06-15T02:17:15.407Z,996.79
2018-06-15T02:18:25.475Z,996.82
2018-06-15T02:19:35.278Z,996.79
2018-06-15T02:20:45.340Z,996.84
2018-06-15T02:21:55.144Z,996.79
2018-06-15T02:23:05.221Z,996.8
2018-06-15T02:24:15.289Z,996.79
2018-06-15T02:25:25.347Z,996.87
2018-06-15T02:26:35.422Z,996.83
2018-06-15T02:27:45.239Z,996.85
2018-06-15T02:28:54.774Z,996.85
2018-06-15T02:30:04.573Z,996.84
2018-06-15T02:31:14.869Z,996.82
2018-06-15T02:32:24.705Z,996.82
2018-06-15T02:33:34.518Z,996.92
2018-06-15T02:34:44.580Z,996.89
2018-06-15T02:35:54.391Z,996.9
2018-06-15T02:37:04.503Z,996.91
2018-06-15T02:38:14.586Z,996.9
2018-06-15T02:39:24.683Z,996.96
2018-06-15T02:40:34.767Z,996.87
2018-06-15T02:41:44.581Z,996.93
2018-06-15T02:42:54.390Z,996.83
2018-06-15T02:44:04.474Z,996.95
2018-06-15T02:45:14.529Z,996.92
2018-06-15T02:46:24.456Z,996.91
2018-06-15T02:47:34.539Z,996.9
2018-06-15T02:48:44.625Z,996.92
2018-06-15T02:49:54.459Z,996.9
2018-06-15T02:51:04.548Z,996.91
2018-06-15T02:52:14.617Z,996.85
2018-06-15T02:53:24.689Z,996.97
2018-06-15T02:54:34.779Z,996.94
2018-06-15T02:55:44.847Z,996.91
2018-06-15T02:56:54.662Z,996.92
2018-06-15T02:58:04.720Z,996.93
2018-06-15T02:59:14.555Z,996.9
2018-06-15T03:00:24.641Z,996.88
2018-06-15T03:01:34.788Z,996.9
2018-06-15T03:02:44.891Z,996.94
2018-06-15T03:34:26.260Z,997.05
2018-06-15T03:35:36.323Z,997.05
2018-06-15T03:36:46.387Z,997.1
2018-06-15T03:37:56.460Z,997.1
2018-06-15T03:39:06.520Z,997.11
2018-06-15T03:40:16.577Z,997.07
2018-06-15T03:41:26.655Z,997.07
2018-06-15T03:42:36.723Z,997.13
2018-06-15T03:43:46.785Z,997.12
2018-06-15T03:44:56.866Z,997.11
2018-06-15T03:46:06.989Z,997.13
2018-06-15T03:47:17.062Z,997.13
2018-06-15T03:48:27.129Z,997.11
2018-06-15T03:49:36.940Z,997.12
2018-06-15T03:50:47.029Z,997.12
2018-06-15T03:51:57.085Z,997.13
2018-06-15T03:53:06.920Z,997.23
2018-06-15T03:54:16.982Z,997.17
2018-06-15T03:55:26.781Z,997.14
2018-06-15T03:56:36.866Z,997.17
2018-06-15T03:57:46.677Z,997.2
2018-06-15T03:58:56.780Z,997.19
2018-06-15T04:00:06.911Z,997.17
2018-06-15T04:01:16.986Z,997.21
2018-06-15T04:02:26.800Z,997.28
2018-06-15T04:03:36.942Z,997.22
2018-06-15T04:04:47.002Z,997.22
2018-06-15T04:05:56.819Z,997.15
2018-06-15T04:07:06.901Z,997.17
2018-06-15T04:08:16.986Z,997.14
2018-06-15T04:09:27.115Z,997.13
2018-06-15T04:10:36.932Z,997.13
2018-06-15T04:11:46.997Z,997.12
2018-06-15T04:12:56.826Z,997.15
2018-06-15T04:14:07.232Z,997.16
2018-06-15T04:15:17.310Z,997.2
2018-06-15T04:16:26.866Z,997.2
2018-06-15T04:17:36.955Z,997.22
2018-06-15T04:18:47.019Z,997.21
2018-06-15T04:19:57.098Z,997.25
2018-06-15T04:21:07.182Z,997.26
2018-06-15T04:22:17.267Z,997.26
2018-06-15T04:23:27.323Z,997.28
2018-06-15T04:24:37.393Z,997.26
2018-06-15T04:25:47.449Z,997.27
2018-06-15T04:26:57.533Z,997.34
2018-06-15T04:28:07.610Z,997.35
2018-06-15T04:29:17.674Z,997.35
2018-06-15T04:30:27.753Z,997.36
2018-06-15T04:31:37.821Z,997.36
2018-06-15T04:32:47.901Z,997.35
2018-06-15T04:33:57.968Z,997.33
2018-06-15T04:35:07.844Z,997.33
2018-06-15T04:36:17.910Z,997.34
2018-06-15T04:37:27.733Z,997.4
2018-06-15T04:38:37.270Z,997.36
2018-06-15T04:39:47.342Z,997.37
2018-06-15T04:40:57.417Z,997.4
2018-06-15T04:42:07.238Z,997.36
2018-06-15T04:43:17.317Z,997.41
2018-06-15T04:44:27.389Z,997.4
2018-06-15T04:45:37.204Z,997.41
2018-06-15T04:46:47.269Z,997.41
2018-06-15T04:47:57.347Z,997.44
2018-06-15T04:49:07.455Z,997.42
2018-06-15T04:50:17.274Z,997.48
2018-06-15T04:51:27.340Z,997.51
2018-06-15T04:52:37.160Z,997.51
2018-06-15T04:53:47.245Z,997.46
2018-06-15T04:54:57.323Z,997.47
2018-06-15T04:56:07.120Z,997.41
2018-06-15T04:57:17.304Z,997.46
2018-06-15T04:58:27.151Z,997.45
2018-06-15T04:59:37.209Z,997.49
2018-06-15T05:00:47.081Z,997.48
2018-06-15T05:01:56.877Z,997.47
2018-06-15T05:03:06.963Z,997.46
2018-06-15T05:04:17.287Z,997.48
2018-06-15T05:05:27.102Z,997.47
2018-06-15T05:06:37.189Z,997.51
2018-06-15T05:07:47.266Z,997.52
2018-06-15T05:08:57.063Z,997.49
2018-06-15T05:10:06.884Z,997.45
2018-06-15T05:11:16.971Z,997.44
2018-06-15T05:12:26.835Z,997.44
2018-06-15T05:13:36.647Z,997.42
2018-06-15T05:14:46.465Z,997.44
2018-06-15T05:15:56.270Z,997.45
2018-06-15T05:17:06.350Z,997.43
2018-06-15T05:18:16.295Z,997.43
2018-06-15T05:19:26.364Z,997.44
2018-06-15T05:20:36.460Z,997.43
2018-06-15T05:21:46.542Z,997.48
2018-06-15T05:22:56.594Z,997.45
2018-06-15T05:24:06.728Z,997.45
2018-06-15T05:25:16.560Z,997.48
2018-06-15T05:26:26.641Z,997.49
2018-06-15T05:27:36.706Z,997.49
2018-06-15T05:28:46.788Z,997.52
2018-06-15T05:29:56.866Z,998.11
2018-06-15T05:31:06.942Z,997.61
2018-06-15T05:32:16.996Z,997.76
2018-06-15T05:33:27.060Z,998.44
2018-06-15T05:34:36.867Z,997.68
2018-06-15T05:35:46.934Z,997.67
2018-06-15T05:36:57.014Z,997.56
2018-06-15T05:38:07.097Z,997.55
2018-06-15T05:39:17.173Z,997.52
2018-06-15T05:40:26.984Z,997.47
2018-06-15T05:41:37.072Z,997.54
2018-06-15T05:42:47.160Z,997.53
2018-06-15T05:43:56.971Z,997.5
2018-06-15T05:45:06.797Z,997.47
2018-06-15T05:46:16.893Z,997.47
2018-06-15T05:47:26.970Z,997.46
2018-06-15T05:48:37.062Z,997.45
2018-06-15T05:49:46.609Z,997.55
2018-06-15T05:50:56.895Z,997.57
2018-06-15T05:52:06.974Z,997.52
2018-06-15T05:53:17.052Z,997.52
2018-06-15T05:54:26.868Z,997.49
2018-06-15T05:55:36.970Z,997.49
2018-06-15T05:56:47.276Z,997.56
2018-06-15T05:57:57.369Z,997.52
2018-06-15T05:59:07.166Z,997.49
2018-06-15T06:00:17.255Z,997.51
2018-06-15T06:01:27.312Z,997.52
2018-06-15T06:02:37.415Z,997.53
2018-06-15T06:03:47.487Z,997.55
2018-06-15T06:04:58.002Z,997.56
2018-06-15T06:06:08.087Z,997.57
2018-06-15T06:07:18.151Z,997.67
2018-06-15T06:08:28.240Z,997.58
2018-06-15T06:09:38.320Z,997.59
2018-06-15T06:10:48.393Z,997.65
2018-06-15T06:11:58.480Z,997.62
2018-06-15T06:13:08.539Z,997.66
2018-06-15T06:14:18.354Z,997.64
2018-06-15T06:15:28.420Z,997.68
2018-06-15T06:16:38.304Z,997.77
2018-06-15T06:17:48.390Z,997.72
2018-06-15T06:18:58.454Z,997.67
2018-06-15T06:20:08.590Z,997.7
2018-06-15T06:21:18.482Z,997.7
2018-06-15T06:22:28.293Z,997.66
2018-06-15T06:23:38.403Z,997.69
2018-06-15T06:24:48.473Z,997.67
2018-06-15T06:25:58.558Z,997.67
2018-06-15T06:27:08.112Z,997.67
2018-06-15T06:28:18.201Z,997.7
2018-06-15T06:29:28.263Z,997.7
2018-06-15T06:30:38.345Z,997.65
2018-06-15T06:31:48.413Z,997.69
2018-06-15T06:32:58.489Z,997.74
2018-06-15T06:34:08.566Z,997.74
2018-06-15T06:35:18.642Z,997.69
2018-06-15T06:36:28.774Z,997.74
2018-06-15T06:37:38.858Z,997.69
2018-06-15T06:38:48.408Z,997.69
2018-06-15T06:39:58.479Z,997.7
2018-06-15T06:41:08.301Z,997.66
2018-06-15T06:42:18.416Z,997.73
2018-06-15T06:43:28.485Z,997.73
2018-06-15T06:44:38.304Z,997.74
2018-06-15T06:45:48.402Z,997.73
2018-06-15T06:46:58.477Z,997.72
2018-06-15T06:48:08.328Z,997.68
2018-06-15T06:49:18.387Z,997.74
2018-06-15T06:50:28.225Z,997.7
2018-06-15T06:51:38.547Z,997.71
2018-06-15T06:52:48.619Z,997.71
2018-06-15T06:53:58.699Z,997.72
2018-06-15T06:55:08.511Z,997.71
2018-06-15T06:56:18.330Z,997.72
2018-06-15T06:57:28.158Z,997.76
2018-06-15T06:58:38.229Z,997.75
2018-06-15T06:59:48.312Z,997.79
2018-06-15T07:00:58.375Z,997.8
2018-06-15T07:02:07.931Z,997.79
2018-06-15T07:03:18.010Z,997.77
2018-06-15T07:04:27.841Z,997.81
2018-06-15T07:05:37.909Z,997.76
2018-06-15T07:06:47.978Z,997.8
2018-06-15T07:07:57.800Z,997.8
2018-06-15T07:09:07.873Z,997.81
2018-06-15T07:10:17.676Z,997.78
2018-06-15T07:11:27.491Z,997.8
2018-06-15T07:12:37.567Z,997.84
2018-06-15T07:13:47.381Z,997.79
2018-06-15T07:14:57.452Z,997.74
2018-06-15T07:16:07.719Z,997.73
2018-06-15T07:17:17.855Z,997.75
2018-06-15T07:18:28.133Z,997.72
2018-06-15T07:19:38.208Z,997.7
2018-06-15T07:20:48.276Z,997.71
2018-06-15T07:21:58.349Z,997.7
2018-06-15T07:23:08.169Z,997.67
2018-06-15T07:24:18.238Z,997.63
2018-06-15T07:25:28.320Z,997.62
2018-06-15T07:26:38.397Z,997.6
2018-06-15T07:27:48.514Z,997.61
2018-06-15T07:28:58.576Z,997.63
2018-06-15T07:30:08.397Z,997.6
2018-06-15T07:31:18.469Z,997.58
2018-06-15T07:32:28.558Z,997.7
2018-06-15T07:33:38.121Z,997.62
2018-06-15T07:34:48.221Z,997.61
2018-06-15T07:35:58.320Z,997.57
2018-06-15T07:37:08.421Z,997.65
2018-06-15T07:38:18.550Z,997.62
2018-06-15T07:39:28.628Z,997.66
2018-06-15T07:40:38.483Z,997.63
2018-06-15T07:41:48.310Z,997.6
2018-06-15T07:42:58.394Z,997.63
2018-06-15T07:44:08.468Z,997.64
2018-06-15T07:45:18.292Z,997.62
2018-06-15T07:46:28.410Z,997.7
2018-06-15T07:47:37.977Z,997.68
2018-06-15T07:48:48.057Z,997.7
2018-06-15T07:49:57.879Z,997.67
2018-06-15T07:51:07.952Z,997.69
2018-06-15T07:52:17.762Z,997.66
2018-06-15T07:53:27.992Z,997.61
2018-06-15T07:54:37.797Z,997.61
2018-06-15T07:55:47.866Z,997.59
2018-06-15T07:56:57.941Z,997.62
2018-06-15T07:58:08.083Z,997.64
2018-06-15T07:59:18.203Z,997.59
2018-06-15T08:00:28.184Z,997.59
2018-06-15T08:01:37.995Z,997.61
2018-06-15T08:02:48.076Z,997.6
2018-06-15T08:03:58.148Z,997.62
2018-06-15T08:05:08.223Z,997.58
2018-06-15T08:06:18.288Z,997.6
2018-06-15T08:07:28.359Z,997.59
2018-06-15T08:08:37.660Z,997.59
2018-06-15T08:09:47.780Z,997.58
2018-06-15T08:10:57.668Z,997.62
2018-06-15T08:12:07.499Z,997.59
2018-06-15T08:13:17.321Z,997.61
2018-06-15T08:14:27.637Z,997.58
2018-06-15T08:15:38.295Z,997.63
2018-06-15T08:16:48.404Z,997.61
2018-06-15T08:17:58.588Z,997.61
2018-06-15T08:19:09.055Z,997.58
2018-06-15T08:20:19.908Z,997.56
2018-06-15T08:21:30.094Z,997.58
2018-06-15T08:22:40.199Z,997.54
2018-06-15T08:23:50.300Z,997.53
2018-06-15T08:25:00.135Z,997.54
2018-06-15T08:26:09.984Z,997.55
2018-06-15T08:27:20.108Z,997.54
2018-06-15T08:28:29.941Z,997.53
2018-06-15T08:29:39.772Z,997.56
2018-06-15T08:30:49.620Z,997.54
2018-06-15T08:31:59.681Z,997.52
2018-06-15T08:33:09.803Z,997.54
2018-06-15T08:34:19.629Z,997.55
2018-06-15T08:35:29.705Z,997.51
2018-06-15T08:36:39.601Z,997.5
2018-06-15T08:37:49.682Z,997.53
2018-06-15T08:38:59.772Z,997.53
2018-06-15T08:40:09.868Z,997.48
2018-06-15T08:41:19.972Z,997.5
2018-06-15T08:42:40.025Z,997.51
2018-06-15T08:43:50.136Z,997.49
2018-06-15T08:45:00.236Z,997.47
2018-06-15T08:46:10.332Z,997.48
2018-06-15T08:47:20.431Z,997.47
2018-06-15T08:48:30.544Z,997.45
2018-06-15T08:49:40.649Z,997.51
2018-06-15T08:50:50.734Z,997.46
2018-06-15T08:52:00.825Z,997.54
2018-06-15T08:53:10.716Z,997.45
2018-06-15T08:54:20.794Z,997.51
2018-06-15T08:55:30.896Z,997.5
2018-06-15T08:56:40.719Z,997.5
2018-06-15T08:57:50.832Z,997.55
2018-06-15T08:59:02.044Z,997.47
2018-06-15T09:00:12.162Z,997.52
2018-06-15T09:01:22.243Z,997.52
2018-06-15T09:02:32.332Z,997.55
2018-06-15T09:03:42.449Z,997.51
2018-06-15T09:04:52.535Z,997.55
2018-06-15T09:06:02.416Z,997.56
2018-06-15T09:07:12.496Z,997.55
2018-06-15T09:08:22.319Z,997.59
2018-06-15T09:09:32.141Z,997.6
2018-06-15T09:10:42.283Z,997.63
2018-06-15T09:11:52.385Z,997.62
2018-06-15T09:13:02.208Z,997.64
2018-06-15T09:14:12.296Z,997.65
2018-06-15T09:15:22.109Z,997.67
2018-06-15T09:16:32.241Z,997.64
2018-06-15T09:17:41.783Z,997.66
2018-06-15T09:18:51.876Z,997.65
2018-06-15T09:20:01.686Z,997.63
2018-06-15T09:21:11.773Z,997.59
2018-06-15T09:22:21.917Z,997.62
2018-06-15T09:23:32.004Z,997.65
2018-06-15T09:24:42.084Z,997.7
2018-06-15T09:25:51.906Z,997.64
2018-06-15T09:27:01.726Z,997.72
2018-06-15T09:28:11.815Z,997.7
2018-06-15T09:29:21.634Z,997.74
2018-06-15T09:30:31.734Z,997.68
2018-06-15T09:31:41.543Z,997.73
2018-06-15T09:32:51.655Z,997.69
2018-06-15T09:34:01.774Z,997.73
2018-06-15T09:35:12.105Z,997.76
2018-06-15T09:36:22.006Z,997.73
2018-06-15T09:37:32.122Z,997.72
2018-06-15T09:38:41.973Z,997.72
2018-06-15T09:39:52.061Z,997.7
2018-06-15T09:41:02.176Z,997.69
2018-06-15T09:42:12.306Z,997.71
2018-06-15T09:43:22.403Z,997.69
2018-06-15T09:44:32.485Z,997.67
2018-06-15T09:45:42.554Z,997.63
2018-06-15T09:46:52.637Z,997.67
2018-06-15T09:48:02.734Z,997.63
2018-06-15T09:49:12.855Z,997.62
2018-06-15T09:50:22.980Z,997.56
2018-06-15T09:51:32.595Z,997.59
2018-06-15T09:52:42.680Z,997.59
2018-06-15T09:53:52.902Z,997.57
2018-06-15T09:55:03.130Z,997.54
2018-06-15T09:56:12.954Z,997.57
2018-06-15T09:57:23.038Z,997.56
2018-06-15T09:58:33.158Z,997.61
2018-06-15T09:59:43.021Z,997.65
2018-06-15T10:00:52.603Z,997.61
2018-06-15T10:02:02.695Z,997.64
2018-06-15T10:03:12.775Z,997.63
2018-06-15T10:04:22.361Z,997.59
2018-06-15T10:05:32.452Z,997.55
2018-06-15T10:06:42.555Z,997.59
2018-06-15T10:07:52.648Z,997.56
2018-06-15T10:09:02.730Z,997.57
2018-06-15T10:10:12.822Z,997.58
2018-06-15T10:11:22.644Z,997.62
2018-06-15T10:12:32.464Z,997.59
2018-06-15T10:13:42.561Z,997.58
2018-06-15T10:14:52.661Z,997.54
2018-06-15T10:16:02.768Z,997.51
2018-06-15T10:17:12.860Z,997.54
2018-06-15T10:18:22.957Z,997.53
2018-06-15T10:19:33.042Z,997.57
2018-06-15T10:20:43.124Z,997.59
2018-06-15T10:21:53.229Z,997.56
2018-06-15T10:23:03.052Z,997.52
2018-06-15T10:24:13.202Z,997.52
2018-06-15T10:25:23.285Z,997.44
2018-06-15T10:26:33.117Z,997.46
2018-06-15T10:27:43.257Z,997.53
2018-06-15T10:28:53.142Z,997.51
2018-06-15T10:30:03.266Z,997.48
2018-06-15T10:31:13.373Z,997.46
2018-06-15T10:32:23.470Z,997.3
2018-06-15T10:33:33.322Z,997.49
2018-06-15T10:34:43.176Z,997.5
2018-06-15T10:35:53.321Z,997.38
2018-06-15T10:37:03.301Z,997.42
2018-06-15T10:38:13.525Z,997.38
2018-06-15T10:39:23.899Z,997.47
2018-06-15T10:40:34.419Z,997.45
2018-06-15T10:41:44.730Z,997.45
2018-06-15T10:42:54.299Z,997.51
2018-06-15T10:44:04.123Z,997.4
2018-06-15T10:45:13.952Z,997.39
2018-06-15T10:46:24.026Z,997.33
2018-06-15T10:47:33.903Z,997.45
2018-06-15T10:48:43.724Z,997.43
2018-06-15T10:49:53.544Z,997.35
2018-06-15T10:51:03.629Z,997.32
2018-06-15T10:52:13.449Z,997.37
2018-06-15T10:53:23.531Z,997.36
2018-06-15T10:54:33.617Z,997.54
2018-06-15T10:55:43.697Z,997.55
2018-06-15T10:56:53.773Z,997.38
2018-06-15T10:58:03.619Z,997.37
2018-06-15T10:59:13.713Z,997.37
2018-06-15T11:00:23.806Z,997.41
2018-06-15T11:01:33.357Z,997.37
2018-06-15T11:02:43.445Z,997.34
2018-06-15T11:03:53.568Z,997.29
2018-06-15T11:05:03.656Z,997.31
2018-06-15T11:06:13.737Z,997.35
2018-06-15T11:07:23.822Z,997.36
2018-06-15T11:08:33.904Z,997.37
2018-06-15T11:09:44.148Z,997.33
2018-06-15T11:10:53.984Z,997.36
2018-06-15T11:12:03.823Z,997.3
2018-06-15T11:13:13.945Z,997.31
2018-06-15T11:14:24.057Z,997.36
2018-06-15T11:15:34.459Z,997.44
2018-06-15T11:16:44.339Z,997.4
2018-06-15T11:17:54.179Z,997.38
2018-06-15T11:19:04.275Z,997.34
2018-06-15T11:20:14.387Z,997.26
2018-06-15T11:21:24.542Z,997.27
2018-06-15T11:22:34.642Z,997.27
2018-06-15T11:23:44.731Z,997.36
2018-06-15T11:24:54.555Z,997.38
2018-06-15T11:26:04.378Z,997.39
2018-06-15T11:27:14.176Z,997.43
2018-06-15T11:28:24.284Z,997.41
2018-06-15T11:29:34.598Z,997.36
2018-06-15T11:30:44.680Z,997.33
2018-06-15T11:31:54.580Z,997.41
2018-06-15T11:33:04.407Z,997.39
2018-06-15T11:34:14.502Z,997.26
2018-06-15T11:35:24.593Z,997.31
2018-06-15T11:36:34.740Z,997.3
2018-06-15T11:37:44.854Z,997.26
2018-06-15T11:38:54.668Z,997.29
2018-06-15T11:40:04.758Z,997.23
2018-06-15T11:41:14.640Z,997.22
2018-06-15T11:42:25.601Z,997.24
2018-06-15T11:43:35.707Z,997.24
2018-06-15T11:44:45.825Z,997.38
2018-06-15T11:45:55.672Z,997.23
2018-06-15T11:47:05.770Z,997.18
2018-06-15T11:48:15.876Z,997.17
2018-06-15T11:49:25.965Z,997.14
2018-06-15T11:50:36.054Z,997.18
2018-06-15T11:51:46.129Z,997.14
2018-06-15T11:52:55.972Z,997.23
2018-06-15T11:54:06.053Z,997.22
2018-06-15T11:55:16.154Z,997.17
2018-06-15T11:56:26.260Z,997.15
2018-06-15T11:57:36.350Z,997.18
2018-06-15T11:58:46.187Z,997.21
2018-06-15T11:59:56.305Z,997.18
2018-06-15T12:01:06.414Z,997.16
2018-06-15T12:02:16.535Z,997.15
2018-06-15T12:03:26.691Z,997.15
2018-06-15T12:04:36.810Z,997.16
2018-06-15T12:05:46.948Z,997.15
2018-06-15T12:06:57.097Z,997.19
2018-06-15T12:08:07.237Z,997.23
2018-06-15T12:09:17.073Z,997.14
2018-06-15T12:10:27.158Z,997.13
2018-06-15T12:11:37.233Z,997.17
2018-06-15T12:12:47.321Z,997.12
2018-06-15T12:13:57.406Z,997.12
2018-06-15T12:15:07.501Z,997.14
2018-06-15T12:16:17.332Z,997.14
2018-06-15T12:17:27.435Z,997.16
2018-06-15T12:18:37.517Z,997.15
2018-06-15T12:19:47.356Z,997.19
2018-06-15T12:20:57.491Z,997.14
2018-06-15T12:22:07.601Z,997.23
2018-06-15T12:23:17.425Z,997.19
2018-06-15T12:24:27.262Z,997.21
2018-06-15T12:25:37.076Z,997.18
2018-06-15T12:26:47.149Z,997.18
2018-06-15T12:27:57.472Z,997.24
2018-06-15T12:29:07.290Z,997.32
2018-06-15T12:30:17.387Z,997.22
2018-06-15T12:31:27.476Z,997.23
2018-06-15T12:32:37.647Z,997.26
2018-06-15T12:33:47.990Z,997.26
2018-06-15T12:34:57.823Z,997.21
2018-06-15T12:36:07.894Z,997.22
2018-06-15T12:37:17.715Z,997.18
2018-06-15T12:38:27.541Z,997.16
2018-06-15T12:39:37.615Z,997.15
2018-06-15T12:40:47.688Z,997.15
2018-06-15T12:41:57.777Z,997.09
2018-06-15T12:43:07.873Z,997.13
2018-06-15T12:44:17.944Z,997.12
2018-06-15T12:45:28.237Z,997.13
2018-06-15T12:46:38.371Z,997.12
2018-06-15T12:47:48.471Z,997.15
2018-06-15T12:48:58.559Z,997.15
2018-06-15T12:50:08.670Z,997.14
2018-06-15T12:51:18.542Z,997.16
2018-06-15T12:52:28.299Z,997.18
2018-06-15T12:53:37.862Z,997.18
2018-06-15T12:54:47.215Z,997.14
2018-06-15T12:55:57.039Z,997.18
2018-06-15T12:57:07.155Z,997.2
2018-06-15T12:58:16.571Z,997.2
2018-06-15T12:59:26.693Z,997.17
2018-06-15T13:00:36.256Z,997.19
2018-06-15T13:01:46.354Z,997.17
2018-06-15T13:02:55.907Z,997.21
2018-06-15T13:04:05.994Z,997.21
2018-06-15T13:05:15.562Z,997.18
2018-06-15T13:06:25.639Z,997.2
2018-06-15T13:07:35.797Z,997.21
2018-06-15T13:08:45.391Z,997.18
2018-06-15T13:09:55.468Z,997.17
2018-06-15T13:11:05.567Z,997.19
2018-06-15T13:12:15.654Z,997.2
2018-06-15T13:13:25.556Z,997.15
2018-06-15T13:14:35.387Z,997.18
2018-06-15T13:15:45.198Z,997.08
2018-06-15T13:16:55.289Z,997.07
2018-06-15T13:18:05.105Z,997.09
2018-06-15T13:19:14.939Z,997.08
2018-06-15T13:20:24.766Z,997.09
2018-06-15T13:21:34.861Z,997.06
2018-06-15T13:22:44.694Z,997
2018-06-15T13:23:54.254Z,997
2018-06-15T13:25:03.529Z,996.98
2018-06-15T13:26:13.355Z,996.96
2018-06-15T13:27:23.457Z,996.96
2018-06-15T13:28:33.029Z,996.98
2018-06-15T13:29:42.891Z,996.98
2018-06-15T13:30:52.502Z,996.98
2018-06-15T13:32:02.335Z,996.95
2018-06-15T13:33:12.164Z,996.94
2018-06-15T13:34:21.996Z,996.94
2018-06-15T13:35:31.832Z,996.87
2018-06-15T13:36:41.720Z,996.85
2018-06-15T13:37:51.562Z,996.84
2018-06-15T13:39:01.678Z,996.87
2018-06-15T13:40:11.783Z,996.85
2018-06-15T13:41:21.905Z,996.85
2018-06-15T13:42:32.049Z,996.85
2018-06-15T13:43:41.336Z,996.81
2018-06-15T13:44:51.428Z,996.79
2018-06-15T13:46:01.258Z,996.8
2018-06-15T13:47:11.375Z,996.73
2018-06-15T13:48:20.995Z,996.77
2018-06-15T13:49:31.089Z,996.76
2018-06-15T13:50:40.394Z,996.76
2018-06-15T13:51:50.241Z,996.75
2018-06-15T13:53:00.322Z,996.69
2018-06-15T13:54:10.165Z,996.75
2018-06-15T13:55:19.995Z,996.73
2018-06-15T13:56:30.096Z,996.71
2018-06-15T13:57:40.211Z,996.82
2018-06-15T13:58:50.060Z,996.66
2018-06-15T14:00:00.190Z,996.68
2018-06-15T14:01:09.749Z,996.69
2018-06-15T14:02:19.990Z,996.62
2018-06-15T14:03:29.818Z,996.66
2018-06-15T14:04:39.355Z,996.62
2018-06-15T14:05:48.960Z,996.64
2018-06-15T14:06:58.813Z,996.63
2018-06-15T14:08:08.687Z,996.61
2018-06-15T14:09:18.777Z,996.62
2018-06-15T14:10:28.609Z,996.64
2018-06-15T14:11:38.747Z,996.67
2018-06-15T14:12:48.852Z,996.67
2018-06-15T14:13:58.842Z,996.65
2018-06-15T14:15:08.905Z,996.68
2018-06-15T14:16:18.732Z,996.73
2018-06-15T14:17:28.924Z,996.72
2018-06-15T14:18:38.216Z,996.7
2018-06-15T14:19:48.054Z,996.7
2018-06-15T14:20:58.171Z,996.59
2018-06-15T14:22:08.263Z,996.63
2018-06-15T14:23:17.827Z,996.71
2018-06-15T14:24:27.917Z,996.66
2018-06-15T14:25:37.739Z,996.66
2018-06-15T14:26:47.300Z,996.61
2018-06-15T14:27:57.408Z,996.53
2018-06-15T14:29:07.379Z,996.6
2018-06-15T14:30:16.915Z,996.61
2018-06-15T14:31:26.525Z,996.6
2018-06-15T14:32:36.360Z,996.62
2018-06-15T14:33:45.957Z,996.6
2018-06-15T14:34:56.061Z,996.62
2018-06-15T14:36:05.902Z,996.58
2018-06-15T14:37:16.006Z,996.56
2018-06-15T14:38:25.861Z,996.6
2018-06-15T14:39:35.959Z,996.59
2018-06-15T14:40:46.349Z,996.59
2018-06-15T14:41:56.190Z,996.55
2018-06-15T14:43:06.290Z,996.55
2018-06-15T14:44:16.372Z,996.59
2018-06-15T14:45:26.232Z,996.52
2018-06-15T14:46:35.822Z,996.53
2018-06-15T14:47:45.736Z,996.56
2018-06-15T14:48:55.299Z,996.59
2018-06-15T14:50:05.129Z,996.59
2018-06-15T14:51:15.013Z,996.53
2018-06-15T14:52:24.860Z,996.52
2018-06-15T14:53:34.679Z,996.6
2018-06-15T14:54:44.496Z,996.49
2018-06-15T14:55:54.584Z,996.44
2018-06-15T14:57:04.682Z,996.47
2018-06-15T14:58:14.772Z,996.4
2018-06-15T14:59:24.683Z,996.34
2018-06-15T15:00:34.562Z,996.42
2018-06-15T15:01:44.703Z,996.32
2018-06-15T15:02:54.007Z,996.33
2018-06-15T15:04:04.105Z,996.49
2018-06-15T15:05:14.202Z,996.41
2018-06-15T15:06:24.291Z,996.33
2018-06-15T15:07:34.187Z,996.39